HSSK 230700Z 26008KT CAVOK 32/17 Q1010 NOSIG
From batch tds/metars/production/2022/9/23/h07_m55_metars.cache.csv.gz
Observed at (13 days ago)
Identifier HSSK
talk